TAF Text Data
IDs:
Format:
Raw Decoded Include METAR

Data at: 0731 UTC 21 Sep 2018

KORF 210533Z 2106/2206 00000KT P6SM SCT250
  FM211000 12006KT P6SM SCT025
  FM211600 15008KT P6SM SCT050
  FM220200 18007KT P6SM SCT250